createdAt,value
2019-01-10T00:00:11.293Z,4.77
2019-01-10T00:02:44.699Z,2.77
2019-01-10T00:05:12.757Z,6.83
2019-01-10T00:07:41.090Z,2.87
2019-01-10T00:10:09.853Z,4.03
2019-01-10T00:12:39.596Z,10.90
2019-01-10T00:15:10.851Z,1.90
2019-01-10T00:17:38.639Z,3.17
2019-01-10T00:20:06.789Z,2.00
2019-01-10T00:22:34.465Z,1.63
2019-01-10T00:25:03.055Z,2.30
2019-01-10T00:27:32.837Z,3.90
2019-01-10T00:30:00.717Z,2.57
2019-01-10T00:32:29.006Z,3.23
2019-01-10T00:34:57.184Z,9.00
2019-01-10T00:37:25.153Z,1.80
2019-01-10T00:39:52.691Z,3.57
2019-01-10T00:42:20.583Z,1.93
2019-01-10T00:44:48.063Z,9.07
2019-01-10T00:47:16.199Z,3.53
2019-01-10T00:49:44.069Z,8.60
2019-01-10T00:52:12.055Z,4.77
2019-01-10T00:54:39.527Z,2.77
2019-01-10T00:57:07.222Z,2.93
2019-01-10T00:59:35.385Z,4.47
2019-01-10T01:02:03.387Z,4.70
2019-01-10T01:04:30.970Z,6.73
2019-01-10T01:06:58.570Z,5.17
2019-01-10T01:09:26.601Z,4.80
2019-01-10T01:11:58.385Z,5.43
2019-01-10T01:14:26.740Z,8.00
2019-01-10T01:16:54.481Z,7.60
2019-01-10T01:19:22.608Z,11.43
2019-01-10T01:21:50.756Z,8.33
2019-01-10T01:24:18.811Z,5.90
2019-01-10T01:26:46.769Z,4.57
2019-01-10T01:29:14.680Z,4.50
2019-01-10T01:31:42.660Z,4.63
2019-01-10T01:34:10.749Z,6.07
2019-01-10T01:36:39.180Z,5.50
2019-01-10T01:39:08.030Z,6.63
2019-01-10T01:41:36.008Z,4.10
2019-01-10T01:44:03.809Z,4.27
2019-01-10T01:46:31.285Z,4.53
2019-01-10T01:48:59.347Z,6.20
2019-01-10T01:51:28.113Z,4.07
2019-01-10T01:53:56.191Z,5.37
2019-01-10T01:56:23.756Z,4.23
2019-01-10T01:58:51.287Z,3.20
2019-01-10T02:01:21.250Z,3.07
2019-01-10T02:03:49.261Z,4.40
2019-01-10T02:06:16.812Z,3.90
2019-01-10T02:08:44.399Z,5.90
2019-01-10T02:11:11.913Z,4.93
2019-01-10T02:13:43.260Z,2.30
2019-01-10T02:16:11.217Z,4.23
2019-01-10T02:18:38.933Z,2.60
2019-01-10T02:21:07.372Z,2.10
2019-01-10T02:23:36.322Z,2.23
2019-01-10T02:26:03.955Z,4.17
2019-01-10T02:28:31.537Z,1.80
2019-01-10T02:30:59.159Z,2.13
2019-01-10T02:33:27.934Z,3.63
2019-01-10T02:35:55.475Z,1.50
2019-01-10T02:38:23.083Z,1.83
2019-01-10T02:40:51.013Z,1.50
2019-01-10T02:43:26.325Z,3.00
2019-01-10T02:45:48.462Z,1.73
2019-01-10T02:48:15.949Z,2.00
2019-01-10T02:50:43.513Z,1.90
2019-01-10T02:53:11.511Z,4.90
2019-01-10T02:55:39.188Z,2.27
2019-01-10T02:58:07.867Z,2.23
2019-01-10T03:00:35.952Z,2.73
2019-01-10T03:03:03.839Z,3.00
2019-01-10T03:05:31.398Z,1.87
2019-01-10T03:07:59.433Z,2.07
2019-01-10T03:10:27.118Z,2.80
2019-01-10T03:12:55.015Z,2.00
2019-01-10T03:15:23.321Z,3.60
2019-01-10T03:17:51.066Z,1.90
2019-01-10T03:20:21.168Z,1.90
2019-01-10T03:22:49.326Z,2.00
2019-01-10T03:25:16.936Z,2.20
2019-01-10T03:27:44.536Z,2.17
2019-01-10T03:30:14.901Z,3.27
2019-01-10T03:32:42.955Z,2.97
2019-01-10T03:35:10.708Z,2.20
2019-01-10T03:37:38.313Z,2.70
2019-01-10T03:40:09.240Z,2.80
2019-01-10T03:42:36.939Z,2.30
2019-01-10T03:45:05.945Z,3.10
2019-01-10T03:47:33.543Z,2.30
2019-01-10T03:50:00.984Z,3.37
2019-01-10T03:52:29.001Z,2.70
2019-01-10T03:54:57.253Z,2.80
2019-01-10T03:57:25.205Z,3.40
2019-01-10T03:59:52.977Z,4.53
2019-01-10T04:02:21.174Z,2.87
2019-01-10T04:04:48.769Z,3.07
2019-01-10T04:07:16.767Z,2.70
2019-01-10T04:09:44.683Z,3.10
2019-01-10T04:12:12.209Z,2.67
2019-01-10T04:14:42.705Z,2.90
2019-01-10T04:17:10.367Z,3.37
2019-01-10T04:19:38.506Z,3.17
2019-01-10T04:22:06.386Z,3.63
2019-01-10T04:24:33.918Z,3.03
2019-01-10T04:27:01.770Z,3.77
2019-01-10T04:29:30.030Z,3.17
2019-01-10T04:31:58.139Z,2.87
2019-01-10T04:34:26.279Z,2.70
2019-01-10T04:36:54.223Z,3.70
2019-01-10T04:39:21.858Z,2.80
2019-01-10T04:41:49.994Z,2.97
2019-01-10T04:44:18.083Z,3.90
2019-01-10T04:46:46.350Z,2.50
2019-01-10T04:49:14.636Z,3.23
2019-01-10T04:51:42.219Z,2.87
2019-01-10T04:54:21.815Z,3.57
2019-01-10T04:56:49.569Z,3.73
2019-01-10T04:59:17.263Z,3.70
2019-01-10T05:01:46.006Z,3.90
2019-01-10T05:04:13.759Z,5.67
2019-01-10T05:06:42.070Z,3.70
2019-01-10T05:09:09.620Z,3.30
2019-01-10T05:11:37.305Z,3.50
2019-01-10T05:14:05.484Z,4.87
2019-01-10T05:16:33.288Z,4.00
2019-01-10T05:19:01.340Z,4.63
2019-01-10T05:21:29.616Z,3.60
2019-01-10T05:23:57.399Z,4.23
2019-01-10T05:26:25.202Z,3.90
2019-01-10T05:28:53.420Z,3.70
2019-01-10T05:31:23.811Z,4.23
2019-01-10T05:33:51.916Z,4.80
2019-01-10T05:36:19.681Z,3.70
2019-01-10T05:38:47.834Z,9.87
2019-01-10T05:41:16.040Z,3.70
2019-01-10T05:43:43.700Z,3.40
2019-01-10T05:46:11.527Z,5.60
2019-01-10T05:48:47.136Z,4.00
2019-01-10T05:51:10.101Z,6.70
2019-01-10T05:53:40.604Z,3.73
2019-01-10T05:56:15.202Z,5.17
2019-01-10T05:58:38.331Z,3.37
2019-01-10T06:01:06.325Z,9.00
2019-01-10T06:03:34.031Z,3.80
2019-01-10T06:06:01.906Z,4.13
2019-01-10T06:08:29.628Z,5.17
2019-01-10T06:10:58.192Z,4.87
2019-01-10T06:13:26.002Z,4.20
2019-01-10T06:15:54.154Z,4.53
2019-01-10T06:18:22.094Z,5.73
2019-01-10T06:20:49.745Z,4.10
2019-01-10T06:23:18.039Z,4.67
2019-01-10T06:25:46.256Z,5.07
2019-01-10T06:28:13.842Z,4.30
2019-01-10T06:30:42.159Z,5.97
2019-01-10T06:33:09.786Z,3.50
2019-01-10T06:35:37.492Z,4.13
2019-01-10T06:38:05.386Z,6.10
2019-01-10T06:40:33.312Z,3.17
2019-01-10T06:43:03.384Z,3.63
2019-01-10T06:45:31.000Z,3.40
2019-01-10T06:47:59.291Z,3.90
2019-01-10T06:50:26.934Z,4.10
2019-01-10T06:52:56.762Z,3.43
2019-01-10T06:55:25.128Z,4.53
2019-01-10T06:58:01.151Z,4.07
2019-01-10T07:00:29.458Z,3.80
2019-01-10T07:02:57.012Z,5.63
2019-01-10T07:05:24.557Z,4.27
2019-01-10T07:07:56.690Z,3.40
2019-01-10T07:10:29.322Z,4.50
2019-01-10T07:12:57.090Z,6.43
2019-01-10T07:15:24.607Z,6.50
2019-01-10T07:17:52.526Z,3.97
2019-01-10T07:20:19.883Z,4.57
2019-01-10T07:22:49.483Z,6.10
2019-01-10T07:25:17.077Z,6.63
2019-01-10T07:27:44.746Z,5.13
2019-01-10T07:30:19.191Z,4.57
2019-01-10T07:32:46.720Z,5.30
2019-01-10T07:35:14.412Z,7.80
2019-01-10T07:37:46.837Z,5.20
2019-01-10T07:40:16.207Z,6.80
2019-01-10T07:42:43.724Z,4.63
2019-01-10T07:45:29.991Z,4.40
2019-01-10T07:48:07.777Z,5.60
2019-01-10T07:50:36.512Z,5.40
2019-01-10T07:53:07.605Z,5.50
2019-01-10T07:55:35.291Z,5.30
2019-01-10T07:58:03.017Z,7.40
2019-01-10T08:00:30.797Z,8.67
2019-01-10T08:02:58.450Z,6.43
2019-01-10T08:05:32.719Z,4.70
2019-01-10T08:08:00.513Z,5.90
2019-01-10T08:10:31.573Z,6.37
2019-01-10T08:13:00.466Z,4.97
2019-01-10T08:15:28.226Z,3.70
2019-01-10T08:17:56.244Z,5.87
2019-01-10T08:20:24.530Z,4.43
2019-01-10T08:22:52.198Z,3.93
2019-01-10T08:25:20.111Z,4.57
2019-01-10T08:27:47.916Z,3.50
2019-01-10T08:30:18.185Z,3.57
2019-01-10T08:32:47.161Z,2.67
2019-01-10T08:35:18.677Z,6.30
2019-01-10T08:37:46.861Z,3.23
2019-01-10T08:40:14.595Z,8.27
2019-01-10T08:42:42.595Z,4.60
2019-01-10T08:45:21.476Z,5.67
2019-01-10T08:47:42.981Z,4.27
2019-01-10T08:50:14.178Z,5.03
2019-01-10T08:52:42.723Z,6.80
2019-01-10T08:55:11.650Z,5.30
2019-01-10T08:57:39.542Z,5.80
2019-01-10T09:00:11.085Z,5.50
2019-01-10T09:02:39.001Z,4.93
2019-01-10T09:05:07.111Z,6.73
2019-01-10T09:07:35.015Z,5.20
2019-01-10T09:10:04.912Z,7.10
2019-01-10T09:12:33.609Z,5.23
2019-01-10T09:15:01.303Z,5.90
2019-01-10T09:17:29.218Z,6.47
2019-01-10T09:19:57.807Z,6.17
2019-01-10T09:22:26.633Z,5.70
2019-01-10T09:24:55.013Z,4.90
2019-01-10T09:27:23.331Z,5.87
2019-01-10T09:29:50.937Z,3.97
2019-01-10T09:32:18.899Z,4.80
2019-01-10T09:34:47.147Z,5.90
2019-01-10T09:37:15.949Z,5.33
2019-01-10T09:39:45.254Z,7.00
2019-01-10T09:42:13.091Z,5.30
2019-01-10T09:44:41.675Z,6.53
2019-01-10T09:47:11.917Z,4.50
2019-01-10T09:49:41.852Z,6.03
2019-01-10T09:52:10.312Z,5.93
2019-01-10T09:54:39.324Z,6.60
2019-01-10T09:57:07.626Z,4.90
2019-01-10T09:59:36.163Z,5.93
2019-01-10T10:02:04.606Z,5.30
2019-01-10T10:04:32.354Z,5.87
2019-01-10T10:07:00.467Z,9.00
2019-01-10T10:09:28.506Z,6.23
2019-01-10T10:11:56.169Z,5.27
2019-01-10T10:14:24.943Z,7.93
2019-01-10T10:16:52.849Z,7.73
2019-01-10T10:19:21.436Z,6.00
2019-01-10T10:21:49.533Z,6.07
2019-01-10T10:24:17.150Z,9.77
2019-01-10T10:26:44.614Z,7.00
2019-01-10T10:29:12.719Z,11.27
2019-01-10T10:31:40.511Z,9.73
2019-01-10T10:34:08.198Z,9.83
2019-01-10T10:36:36.403Z,8.93
2019-01-10T10:39:07.589Z,9.00
2019-01-10T10:41:35.196Z,9.13
2019-01-10T10:44:03.023Z,10.27
2019-01-10T10:46:30.449Z,11.27
2019-01-10T10:48:58.780Z,14.63
2019-01-10T10:51:30.009Z,11.37
2019-01-10T10:53:57.537Z,10.43
2019-01-10T10:56:25.602Z,11.87
2019-01-10T10:58:53.644Z,10.20
2019-01-10T11:01:21.524Z,12.03
2019-01-10T11:03:49.713Z,11.60
2019-01-10T11:06:17.225Z,9.43
2019-01-10T11:08:45.181Z,8.97
2019-01-10T11:11:13.018Z,11.40
2019-01-10T11:13:41.146Z,9.70
2019-01-10T11:16:12.516Z,8.03
2019-01-10T11:18:40.215Z,10.20
2019-01-10T11:21:08.087Z,12.40
2019-01-10T11:23:35.668Z,9.73
2019-01-10T11:26:03.749Z,8.10
2019-01-10T11:28:32.247Z,9.63
2019-01-10T11:30:59.762Z,10.70
2019-01-10T11:33:27.588Z,10.10
2019-01-10T11:35:55.087Z,9.33
2019-01-10T11:38:22.749Z,11.57
2019-01-10T11:40:50.346Z,10.70
2019-01-10T11:43:18.337Z,9.03
2019-01-10T11:45:45.822Z,10.37
2019-01-10T11:48:13.312Z,7.83
2019-01-10T11:50:40.890Z,9.13
2019-01-10T11:53:08.732Z,5.67
2019-01-10T11:55:36.293Z,5.50
2019-01-10T11:58:03.886Z,5.80
2019-01-10T12:00:32.912Z,3.87
2019-01-10T12:03:02.316Z,4.30
2019-01-10T12:05:30.582Z,4.30
2019-01-10T12:07:58.165Z,3.80
2019-01-10T12:10:26.295Z,3.80
2019-01-10T12:12:54.250Z,3.50
2019-01-10T12:15:23.506Z,3.60
2019-01-10T12:17:52.591Z,4.17
2019-01-10T12:20:24.073Z,3.73
2019-01-10T12:22:55.037Z,3.50
2019-01-10T12:25:31.068Z,3.73
2019-01-10T12:28:11.382Z,2.50
2019-01-10T12:30:39.481Z,2.40
2019-01-10T12:33:07.923Z,2.63
2019-01-10T12:35:48.353Z,3.50
2019-01-10T12:38:21.245Z,3.07
2019-01-10T12:40:59.836Z,4.40
2019-01-10T12:43:29.436Z,4.13
2019-01-10T12:46:06.081Z,5.07
2019-01-10T12:48:35.134Z,3.07
2019-01-10T12:51:14.381Z,3.30
2019-01-10T12:53:43.868Z,3.73
2019-01-10T12:56:12.172Z,5.47
2019-01-10T12:58:43.155Z,3.27
2019-01-10T13:01:19.226Z,3.23
2019-01-10T13:03:47.013Z,3.87
2019-01-10T13:06:15.035Z,5.37
2019-01-10T13:08:43.493Z,4.53
2019-01-10T13:11:11.531Z,5.47
2019-01-10T13:13:39.088Z,4.37
2019-01-10T13:16:06.758Z,4.10
2019-01-10T13:18:35.270Z,4.07
2019-01-10T13:21:03.486Z,4.60
2019-01-10T13:23:31.189Z,5.67
2019-01-10T13:26:00.054Z,5.77
2019-01-10T13:28:30.128Z,6.07
2019-01-10T13:31:06.250Z,5.40
2019-01-10T13:33:34.967Z,4.27
2019-01-10T13:36:08.409Z,4.27
2019-01-10T13:38:38.023Z,4.67
2019-01-10T13:41:06.133Z,6.63
2019-01-10T13:43:34.160Z,7.53
2019-01-10T13:46:03.061Z,4.37
2019-01-10T13:48:35.127Z,4.10
2019-01-10T13:51:04.363Z,6.63
2019-01-10T13:53:32.547Z,6.63
2019-01-10T13:56:02.931Z,6.70
2019-01-10T13:58:30.998Z,5.20
2019-01-10T14:00:59.556Z,6.23
2019-01-10T14:03:27.782Z,4.87
2019-01-10T14:05:56.262Z,5.43
2019-01-10T14:08:24.128Z,5.27
2019-01-10T14:10:52.622Z,4.83
2019-01-10T14:13:20.342Z,4.83
2019-01-10T14:15:55.607Z,5.00
2019-01-10T14:18:26.983Z,4.33
2019-01-10T14:20:56.133Z,5.20
2019-01-10T14:23:30.149Z,5.70
2019-01-10T14:26:00.347Z,5.30
2019-01-10T14:28:32.703Z,5.17
2019-01-10T14:31:03.956Z,5.20
2019-01-10T14:33:46.771Z,5.47
2019-01-10T14:36:20.852Z,5.67
2019-01-10T14:38:54.573Z,6.30
2019-01-10T14:41:26.770Z,6.10
2019-01-10T14:43:56.651Z,7.50
2019-01-10T14:46:24.239Z,6.43
2019-01-10T14:48:55.308Z,7.33
2019-01-10T14:51:28.841Z,7.57
2019-01-10T14:54:00.608Z,7.57
2019-01-10T14:56:31.091Z,7.70
2019-01-10T14:58:59.011Z,6.30
2019-01-10T15:01:29.762Z,6.97
2019-01-10T15:04:14.249Z,7.40
2019-01-10T15:06:44.274Z,7.77
2019-01-10T15:09:18.881Z,6.83
2019-01-10T15:11:54.180Z,7.50
2019-01-10T15:14:27.380Z,7.37
2019-01-10T15:16:56.627Z,9.00
2019-01-10T15:19:24.446Z,7.67
2019-01-10T15:21:52.834Z,6.70
2019-01-10T15:24:20.410Z,7.13
2019-01-10T15:26:48.031Z,8.50
2019-01-10T15:29:17.740Z,7.10
2019-01-10T15:31:55.664Z,7.70
2019-01-10T15:34:23.365Z,6.83
2019-01-10T15:36:51.751Z,6.20
2019-01-10T15:39:20.211Z,7.33
2019-01-10T15:41:48.064Z,7.60
2019-01-10T15:44:16.336Z,6.90
2019-01-10T15:46:47.032Z,6.77
2019-01-10T15:49:15.117Z,7.80
2019-01-10T15:51:43.543Z,7.23
2019-01-10T15:54:12.006Z,8.27
2019-01-10T15:56:39.818Z,7.73
2019-01-10T15:59:08.465Z,10.53
2019-01-10T16:01:37.005Z,8.33
2019-01-10T16:04:07.403Z,8.03
2019-01-10T16:07:02.638Z,7.20
2019-01-10T16:09:31.480Z,8.57
2019-01-10T16:12:00.165Z,9.30
2019-01-10T16:14:27.963Z,8.83
2019-01-10T16:16:59.681Z,9.03
2019-01-10T16:19:28.487Z,10.90
2019-01-10T16:21:59.984Z,15.10
2019-01-10T16:24:30.552Z,16.87
2019-01-10T16:27:20.083Z,10.10
2019-01-10T16:33:10.253Z,10.30
2019-01-10T16:36:05.044Z,10.37
2019-01-10T16:45:57.555Z,8.60
2019-01-10T16:52:33.521Z,9.73
2019-01-10T16:55:16.742Z,9.20
2019-01-10T16:57:52.246Z,8.13
2019-01-10T17:01:01.764Z,8.20
2019-01-10T17:03:54.162Z,8.33
2019-01-10T17:06:57.602Z,7.93
2019-01-10T17:09:35.701Z,8.00
2019-01-10T17:12:04.566Z,9.63
2019-01-10T17:14:32.879Z,9.30
2019-01-10T17:17:02.639Z,10.90
2019-01-10T17:19:36.015Z,6.33
2019-01-10T17:22:09.178Z,6.00
2019-01-10T17:24:38.500Z,9.33
2019-01-10T17:27:15.263Z,7.03
2019-01-10T17:29:43.003Z,6.73
2019-01-10T17:32:11.214Z,7.50
2019-01-10T17:34:39.211Z,7.53
2019-01-10T17:37:07.041Z,8.07
2019-01-10T17:39:36.090Z,9.87
2019-01-10T17:42:06.875Z,10.10
2019-01-10T17:44:37.631Z,7.07
2019-01-10T17:47:07.682Z,6.77
2019-01-10T17:49:36.056Z,6.93
2019-01-10T17:52:04.486Z,5.87
2019-01-10T17:54:32.590Z,7.07
2019-01-10T17:57:02.917Z,6.47
2019-01-10T17:59:31.944Z,7.90
2019-01-10T18:02:07.327Z,5.60
2019-01-10T18:04:39.390Z,4.87
2019-01-10T18:07:15.350Z,4.27
2019-01-10T18:09:57.078Z,4.40
2019-01-10T18:12:25.222Z,5.00
2019-01-10T18:14:55.495Z,5.93
2019-01-10T18:17:28.170Z,5.77
2019-01-10T18:20:04.771Z,5.27
2019-01-10T18:22:37.556Z,5.37
2019-01-10T18:25:41.190Z,7.50
2019-01-10T18:28:17.548Z,8.93
2019-01-10T18:30:53.034Z,5.87
2019-01-10T18:33:23.613Z,3.53
2019-01-10T18:36:29.584Z,10.27
2019-01-10T18:39:00.986Z,4.00
2019-01-10T18:41:29.130Z,2.93
2019-01-10T18:44:01.753Z,4.80
2019-01-10T18:46:32.273Z,3.23
2019-01-10T18:49:00.989Z,7.83
2019-01-10T18:51:29.154Z,11.87
2019-01-10T18:53:57.313Z,3.70
2019-01-10T18:56:31.700Z,4.73
2019-01-10T18:59:26.988Z,4.10
2019-01-10T19:02:02.244Z,6.10
2019-01-10T19:04:32.114Z,10.07
2019-01-10T19:07:10.226Z,10.23
2019-01-10T19:09:39.955Z,16.43
2019-01-10T19:12:08.090Z,11.63
2019-01-10T19:14:37.446Z,8.37
2019-01-10T19:17:05.230Z,14.90
2019-01-10T19:19:33.571Z,14.53
2019-01-10T19:22:23.377Z,11.77
2019-01-10T19:24:58.466Z,8.67
2019-01-10T19:27:37.282Z,20.57
2019-01-10T19:30:09.109Z,18.90
2019-01-10T19:32:43.392Z,6.60
2019-01-10T19:35:16.071Z,4.03
2019-01-10T19:37:55.541Z,22.33
2019-01-10T19:40:29.305Z,4.93
2019-01-10T19:43:05.419Z,8.17
2019-01-10T19:45:36.052Z,10.83
2019-01-10T19:48:11.670Z,8.47
2019-01-10T19:54:34.312Z,10.87
2019-01-10T19:57:14.347Z,4.63
2019-01-10T19:59:48.639Z,15.17
2019-01-10T20:02:46.803Z,19.73
2019-01-10T20:05:28.146Z,16.27
2019-01-10T20:07:59.816Z,16.43
2019-01-10T20:10:32.148Z,5.00
2019-01-10T20:13:06.432Z,4.47
2019-01-10T20:15:51.416Z,11.63
2019-01-10T20:21:52.548Z,12.47
2019-01-10T20:24:37.771Z,13.00
2019-01-10T20:27:13.225Z,15.67
2019-01-10T20:29:52.694Z,10.37
2019-01-10T20:32:29.354Z,10.47
2019-01-10T20:34:57.263Z,13.07
2019-01-10T20:37:25.605Z,23.27
2019-01-10T20:40:31.116Z,20.27
2019-01-10T20:43:03.279Z,24.70
2019-01-10T20:45:52.062Z,19.70
2019-01-10T20:48:24.373Z,9.53
2019-01-10T20:51:16.359Z,6.20
2019-01-10T20:53:49.637Z,24.77
2019-01-10T20:56:22.859Z,10.73
2019-01-10T20:58:57.258Z,13.23
2019-01-10T21:01:25.498Z,6.87
2019-01-10T21:04:04.159Z,4.57
2019-01-10T21:06:40.444Z,6.73
2019-01-10T21:09:14.069Z,8.27
2019-01-10T21:11:51.750Z,6.90
2019-01-10T21:14:25.010Z,16.90
2019-01-10T21:16:59.023Z,7.37
2019-01-10T21:19:33.341Z,5.20
2019-01-10T21:22:46.111Z,4.47
2019-01-10T21:24:57.721Z,7.50
2019-01-10T22:32:41.788Z,4.40
2019-01-10T22:35:22.817Z,5.37
2019-01-10T22:38:04.896Z,4.90
2019-01-10T22:40:39.893Z,6.53
2019-01-10T22:43:08.402Z,4.47
2019-01-10T22:46:05.551Z,4.43
2019-01-10T22:49:04.475Z,4.70
2019-01-10T22:52:08.771Z,5.63
2019-01-10T22:54:48.065Z,4.30
2019-01-10T22:57:23.450Z,5.07
2019-01-10T23:00:08.066Z,5.23
2019-01-10T23:02:55.288Z,6.30
2019-01-10T23:05:48.673Z,5.23
2019-01-10T23:08:22.638Z,5.40
2019-01-10T23:10:52.696Z,6.23
2019-01-10T23:13:21.099Z,5.17
2019-01-10T23:15:52.512Z,4.80
2019-01-10T23:18:21.180Z,5.20
2019-01-10T23:20:58.269Z,4.60
2019-01-10T23:23:27.401Z,4.83
2019-01-10T23:25:55.436Z,4.97
2019-01-10T23:28:24.401Z,4.60
2019-01-10T23:30:55.513Z,4.33
2019-01-10T23:34:44.090Z,4.57
2019-01-10T23:37:12.743Z,5.40
2019-01-10T23:39:40.330Z,6.00
2019-01-10T23:42:07.987Z,6.50
2019-01-10T23:44:35.978Z,4.60
2019-01-10T23:47:04.985Z,6.50
2019-01-10T23:49:32.862Z,9.47
2019-01-10T23:52:00.572Z,7.03
2019-01-10T23:54:28.190Z,7.53
2019-01-10T23:56:56.698Z,5.03
2019-01-10T23:59:24.427Z,6.00
